METAR Data
IDs: Format: Raw Decoded Include TAF

Data at: 1531 UTC 18 Aug 2019

KERV 181515Z AUTO 19009KT 10SM SCT023 28/22 A2996 RMK AO2 T02750215
KERV 181455Z AUTO 16013KT 10SM SCT021 28/22 A2996 RMK AO2 T02750215
KERV 181435Z AUTO 16011KT 10SM BKN021 26/21 A2996 RMK AO2 T02610211
KERV 181415Z AUTO 17014G19KT 10SM BKN017 OVC022 26/22 A2996 RMK AO2 T02610219
KERV 181355Z AUTO 18009KT 10SM OVC015 26/22 A2996 RMK AO2 T02590221
KERV 181335Z AUTO 17011KT 10SM OVC013 25/22 A2995 RMK AO2 T02470217
KERV 181315Z AUTO 16009G14KT 10SM OVC011 25/22 A2995 RMK AO2 T02470221
KERV 181255Z AUTO 16008KT 7SM OVC011 25/23 A2994 RMK AO2 T02470225
KERV 181235Z AUTO 16009KT 7SM OVC011 23/21 A2994 RMK AO2 T02330211
KERV 181215Z AUTO 15008KT 10SM OVC011 23/21 A2994 RMK AO2 T02330211
KERV 181155Z AUTO 15008KT 10SM OVC011 23/21 A2993 RMK AO2 T02330211 10275 20233
KERV 181135Z AUTO 15008KT 10SM OVC013 23/21 A2993 RMK AO2 T02330210

KT82 181515Z AUTO 21011G16KT 10SM CLR 28/19 A2997 RMK AO2 T02800185
KT82 181455Z AUTO 20011G16KT 10SM CLR 28/18 A2997 RMK AO2 T02750184
KT82 181435Z AUTO 19013G16KT 10SM CLR 27/19 A2997 RMK AO2 T02700186
KT82 181415Z AUTO 20011G16KT 10SM SCT019 26/19 A2997 RMK AO2 T02620192
KT82 181355Z AUTO 19009G16KT 10SM SCT017 25/20 A2996 RMK AO2 T02520197
KT82 181335Z AUTO 21006KT 10SM SCT014 25/20 A2995 RMK AO2 T02480200
KT82 181315Z AUTO 19008KT 10SM BKN014 24/20 A2995 RMK AO2 T02400200
KT82 181255Z AUTO 20007KT 10SM SCT014 23/20 A2994 RMK AO2 T02340200
KT82 181235Z AUTO 18005KT 10SM CLR 23/20 A2994 RMK AO2 T02280200
KT82 181215Z AUTO 18003KT 10SM CLR 23/20 A2994 RMK AO2 T02280200
KT82 181155Z AUTO 18005KT 10SM CLR 23/20 A2993 RMK AO2 T02270200 10267 20227
KT82 181135Z AUTO 18005KT 10SM SCT014 23/20 A2993 RMK AO2 T02300200

KJCT 181451Z AUTO 15008KT 10SM CLR 29/20 A2995 RMK AO2 SLP099 T02890200 51010
KJCT 181351Z AUTO 18006KT 10SM CLR 26/21 A2994 RMK AO2 SLP097 T02610206
KJCT 181251Z AUTO 16005KT 10SM CLR 24/20 A2993 RMK AO2 SLP093 T02440200
KJCT 181151Z AUTO 14003KT 10SM CLR 25/20 A2991 RMK AO2 SLP087 T02500200 10294 20250 53002

K5C1 181515Z AUTO 18009G14KT 10SM BKN023 27/21 A2997 RMK AO1
K5C1 181455Z AUTO 18010G18KT 10SM BKN021 BKN026 27/21 A2996 RMK AO1
K5C1 181435Z AUTO 17012G18KT 10SM SCT021 26/21 A2996 RMK AO1
K5C1 181415Z AUTO 18009G17KT 10SM SCT018 25/21 A2996 RMK AO1
K5C1 181355Z AUTO 19009G16KT 10SM BKN018 25/22 A2996 RMK AO1
K5C1 181335Z AUTO 19008KT 10SM BKN018 25/22 A2996 RMK AO1
K5C1 181315Z AUTO 19010KT 10SM OVC016 25/22 A2996 RMK AO1
K5C1 181255Z AUTO 18008KT 10SM BKN016 BKN021 24/22 A2995 RMK AO1
K5C1 181235Z AUTO 19007KT 10SM BKN016 24/22 A2994 RMK AO1
K5C1 181215Z AUTO 18006KT 10SM BKN016 23/22 A2994 RMK AO1
K5C1 181155Z AUTO 18008KT 10SM BKN016 BKN021 23/23 A2994 RMK AO1
K5C1 181135Z AUTO 18006KT 10SM SCT016 23/22 A2993 RMK AO1

KHDO 181451Z AUTO 18008KT 10SM BKN018 OVC026 27/22 A2993 RMK AO2 SLP119 T02720222 53009
KHDO 181351Z AUTO 13008KT 10SM BKN017 OVC023 26/23 A2992 RMK AO2 SLP115 T02610228
KHDO 181314Z AUTO 12005KT 10SM BKN016 OVC023 25/22 A2992 RMK AO2 T02500222
KHDO 181251Z AUTO 08006KT 10SM OVC014 24/22 A2991 RMK AO2 SLP110 T02390222
KHDO 181248Z AUTO 09005KT 10SM OVC014 24/22 A2991 RMK AO2
KHDO 181227Z AUTO 09005KT 10SM BKN015 23/22 A2991 RMK AO2 T02330217
KHDO 181151Z AUTO 09006KT 10SM CLR 23/21 A2990 RMK AO2 SLP105 T02330211 10283 20228 53004

KUVA 181515Z AUTO 15009KT 10SM BKN020 27/23 A2993 RMK AO2 T02720225
KUVA 181455Z AUTO 14007KT 10SM SCT018 27/23 A2993 RMK AO2 T02660225
KUVA 181435Z AUTO 13006KT 7SM SCT018 26/23 A2993 RMK AO2 T02610225
KUVA 181415Z AUTO 11005KT 10SM SCT020 26/23 A2993 RMK AO2 T02570225
KUVA 181355Z AUTO 10006KT 10SM SCT020 25/22 A2992 RMK AO2 T02530223
KUVA 181335Z AUTO 10005KT 10SM CLR 25/22 A2992 RMK AO2 T02480221
KUVA 181315Z AUTO 08006KT 10SM CLR 24/22 A2991 RMK AO2 T02430218
KUVA 181255Z AUTO 08005KT 10SM CLR 24/22 A2991 RMK AO2 T02360215
KUVA 181235Z AUTO 08006KT 10SM CLR 23/21 A2990 RMK AO2 T02330213
KUVA 181215Z AUTO 09006KT 10SM CLR 23/21 A2990 RMK AO2 T02320210
KUVA 181155Z AUTO 08006KT 10SM CLR 23/21 A2990 RMK AO2 T02330208 10288 20233
KUVA 181135Z AUTO 08006KT 10SM CLR 24/21 A2989 RMK AO2 T02350206

KSAT 181508Z 18013KT 10SM SCT024 29/21 A2993 RMK AO2 T02940211
KSAT 181451Z 18014G20KT 10SM BKN024 29/22 A2993 RMK AO2 SLP116 BKN V SCT T02890217 51009
KSAT 181351Z 17016G22KT 10SM BKN026 28/22 A2992 RMK AO2 SLP113 BKN V SCT T02780222
KSAT 181251Z 18011KT 10SM BKN021 27/23 A2992 RMK AO2 SLP110 T02670228
KSAT 181225Z 18009KT 10SM BKN021 27/23 A2991 RMK AO2 T02670228
KSAT 181151Z 17012KT 10SM SCT018 27/22 A2990 RMK AO2 SLP105 T02670222 10278 20261 52002
KSAT 181143Z 17014KT 10SM SCT018 27/23 A2990 RMK AO2 T02670228

KSSF 181500Z 17013G18KT 10SM BKN031 32/21 A2990 RMK AO2 T03170206
KSSF 181453Z 17011G18KT 10SM BKN024 31/21 A2990 RMK AO2 SLP110 T03060206 51009
KSSF 181353Z 17013KT 10SM BKN024 29/21 A2990 RMK AO2 SLP109 T02940211
KSSF 181253Z 16009KT 10SM OVC023 28/22 A2989 RMK AO2 SLP107 T02780222
KSSF 181153Z 17006KT 10SM BKN024 27/22 A2987 RMK AO2 SLP100 T02720222 10283 20267 53002